Thunder radar more information blitzortung!


Radar de pluja more information rain snow radar


Visita la nostra xarxa de llocs de meteo:

Template documentation
and downloads

And another site



No particular awareness of the weather is required.    There are no Weather-warnings

Pagina Historial Weather Underground text

Diari Resum May 29, 2017 Unitats:  Imperial    Mètric   Tant
« Previous Dia
SegĂźent Dia »
Diari Setmana Mensual Anual Personalitzada
  Maxima: Minima: Media:
Temperatura: 81 °F 59 °F 73.6 °F
Punt de rosada: 55 °F 42.3 °F 47.3 °F
Humitat: 68 % 29 % 41 %
Wind Speed: 12.8 mph 0 mph 4.2 mph
RĂ fegues de vent: 14 mph - -
Vent:- - SE
Pression baro: 30.1 in 29.9 in -
Precipitacions: 0 in    
Historical Graphs
 
 
Dades de taula per May 29, 2017
Temps Temperatura Punt de rosada Pression baro Vent Wind Speed RĂ fegues de vent Humitat Rainfall Rate (Hourly)
00:00 59.2 °F 47.8 °F 30 in WSW 2 mph 3 mph 66 % 0 in
00:03 67.1 °F 51.4 °F 30.1 in Calm     57 % 0 in
00:08 66.9 °F 51.3 °F 30.1 in Calm     57 % 0 in
00:10 59.2 °F 47.8 °F 30 in WSW 1 mph 2 mph 66 % 0 in
00:20 59.4 °F 48.4 °F 30 in Calm   2 mph 67 % 0 in
00:40 59.4 °F 48.4 °F 30 in Calm   2 mph 67 % 0 in
00:50 59.5 °F 48.6 °F 30 in Calm   1 mph 67 % 0 in
01:00 59.5 °F 48.6 °F 30 in Calm     67 % 0 in
01:10 59.5 °F 48.6 °F 30 in Calm     67 % 0 in
01:20 59.4 °F 48.4 °F 30 in Calm     67 % 0 in
01:30 59 °F 48.4 °F 30 in Calm     68 % 0 in
01:40 59 °F 48.4 °F 30 in Calm     68 % 0 in
01:50 59.2 °F 48.6 °F 30 in Calm     68 % 0 in
02:00 59.7 °F 49.1 °F 30 in Calm     68 % 0 in
02:10 60.6 °F 50 °F 30 in Calm     68 % 0 in
02:20 60.8 °F 49.8 °F 30 in NE 1 mph 2 mph 67 % 0 in
02:30 61.7 °F 50.5 °F 30 in NE 1 mph 1 mph 67 % 0 in
02:40 62.2 °F 50.7 °F 30 in NE 1 mph 2 mph 66 % 0 in
02:50 62.1 °F 50.5 °F 30 in Calm   1 mph 66 % 0 in
03:00 63 °F 50.5 °F 30 in Calm   1 mph 64 % 0 in
03:10 63 °F 50.2 °F 30 in SW 2 mph 2 mph 63 % 0 in
03:20 63 °F 49.6 °F 30 in SW 1 mph 2 mph 62 % 0 in
03:30 63.1 °F 49.8 °F 30 in SW 1 mph 2 mph 62 % 0 in
03:40 63.7 °F 50.4 °F 30 in Calm   2 mph 62 % 0 in
03:50 64.8 °F 51.4 °F 30 in SW 1 mph 2 mph 62 % 0 in
04:00 65.8 °F 52 °F 30 in SW 2 mph 2 mph 61 % 0 in
04:15 68.7 °F 53.2 °F 30 in Calm   2 mph 58 % 0 in
04:25 68.7 °F 52.3 °F 30 in East 1 mph 2 mph 56 % 0 in
04:45 71.2 °F 53.2 °F 30 in ENE 2 mph 4 mph 53 % 0 in
04:55 71.8 °F 52.7 °F 30 in SE 2 mph 2 mph 51 % 0 in
05:05 72.1 °F 53.1 °F 30 in SSW 1 mph 2 mph 51 % 0 in
05:15 72.5 °F 53.2 °F 30 in SW 2 mph 3 mph 51 % 0 in
05:25 73.4 °F 53.6 °F 30 in SW 1 mph 2 mph 50 % 0 in
10:34 73.6 °F 53.2 °F 30 in WSW 1.2 mph 1.4 mph 49 % 0 in
10:39 74.3 °F 53.2 °F 30 in SSE 1.2 mph 1.2 mph 48 % 0 in
10:40 74.3 °F 53.2 °F 30 in SE 2 mph 2 mph 48 % 0 in
10:45 74.5 °F 52.9 °F 30 in SE 3.3 mph 3.3 mph 47 % 0 in
10:50 73.8 °F 52.3 °F 30 in ESE 3.5 mph 3.5 mph 47 % 0 in
10:55 74.3 °F 52.9 °F 30 in NE 2.6 mph 2.6 mph 47 % 0 in
11:00 75 °F 53.4 °F 30 in SW 2.3 mph 2.3 mph 47 % 0 in
11:05 76.3 °F 54 °F 30 in South 1.6 mph   46 % 0 in
11:10 76.6 °F 53.8 °F 30 in SE 2.6 mph 2.6 mph 45 % 0 in
11:15 75.9 °F 52.3 °F 30 in South 3.5 mph 3.5 mph 44 % 0 in
11:20 75.9 °F 52.3 °F 30 in SSE 3.5 mph 3.5 mph 44 % 0 in
11:25 76.5 °F 52.3 °F 30 in ESE 3.5 mph 3.5 mph 43 % 0 in
11:30 77.5 °F 53.2 °F 30 in SW 2.3 mph 2.3 mph 43 % 0 in
11:35 78.8 °F 54.3 °F 30 in SSW 1.2 mph 1.2 mph 43 % 0 in
11:40 80.2 °F 55 °F 30 in ESE 2.3 mph 2.3 mph 42 % 0 in
11:45 79.3 °F 53.6 °F 30 in SE 2.3 mph 2.3 mph 41 % 0 in
11:50 78.4 °F 52.2 °F 30 in NE 3.5 mph 3.5 mph 40 % 0 in
11:55 77.2 °F 50.4 °F 30 in North 5.8 mph 5.8 mph 39 % 0 in
12:00 77.2 °F 50.4 °F 30 in SE 4 mph 4 mph 39 % 0 in
12:05 77.5 °F 51.3 °F 30 in East 4.6 mph 4.6 mph 40 % 0 in
12:10 78.6 °F 51.6 °F 30 in South 2.6 mph 2.6 mph 39 % 0 in
12:15 78.3 °F 52 °F 30 in ENE 4 mph 4 mph 40 % 0 in
12:20 78.3 °F 51.3 °F 30 in SSE 1.2 mph 1.2 mph 39 % 0 in
12:25 78.8 °F 51.6 °F 30 in ESE 2.6 mph 2.6 mph 39 % 0 in
12:30 78.6 °F 51.6 °F 30 in SSE 4.6 mph 4.6 mph 39 % 0 in
12:35 78.6 °F 50.9 °F 30 in NNE 4.3 mph 4.3 mph 38 % 0 in
12:40 79 °F 52 °F 30 in ESE 3.8 mph 3.8 mph 39 % 0 in
12:45 79.2 °F 51.4 °F 30 in East 2.3 mph 2.3 mph 38 % 0 in
12:50 79.9 °F 52 °F 30 in South 4.6 mph 4.6 mph 38 % 0 in
12:55 79.5 °F 51.6 °F 30 in East 6.2 mph 6.2 mph 38 % 0 in
13:00 79.5 °F 51.1 °F 30 in ESE 9.8 mph 9.8 mph 37 % 0 in
13:05 78.4 °F 49.3 °F 30 in ESE 8.1 mph 8.1 mph 36 % 0 in
13:10 79.2 °F 49.8 °F 30 in South 4.6 mph 4.6 mph 36 % 0 in
13:15 79.5 °F 50.2 °F 30 in ENE 8.1 mph 8.1 mph 36 % 0 in
13:20 79.7 °F 50.4 °F 30 in SW 9.2 mph 9.2 mph 36 % 0 in
13:25 80.1 °F 49.3 °F 30 in ESE 9.2 mph 9.2 mph 34 % 0 in
13:30 79.9 °F 49.8 °F 30 in WSW 6.9 mph 6.9 mph 35 % 0 in
13:35 79.5 °F 49.5 °F 30 in SE 5.9 mph 5.9 mph 35 % 0 in
13:40 80.1 °F 49.8 °F 30 in SSE 5.8 mph 5.8 mph 35 % 0 in
13:45 79.5 °F 48.7 °F 30 in ESE 10.4 mph 10.4 mph 34 % 0 in
13:50 79.3 °F 48.6 °F 30 in NNE 8.1 mph 8.1 mph 34 % 0 in
13:55 79.5 °F 47.8 °F 30 in ESE 6.9 mph 6.9 mph 33 % 0 in
14:00 79.5 °F 47.8 °F 30 in ESE 5.8 mph 6.2 mph 33 % 0 in
14:05 79.7 °F 48.7 °F 30 in ESE 9.2 mph 9.2 mph 34 % 0 in
14:10 79.7 °F 48.7 °F 30 in ENE 5.9 mph 5.9 mph 34 % 0 in
14:15 79.5 °F 47.1 °F 30 in East 12.7 mph 12.7 mph 32 % 0 in
14:20 79.7 °F 47.1 °F 30 in East 8.1 mph 8.1 mph 32 % 0 in
14:25 79.7 °F 47.1 °F 30 in ENE 8.1 mph 8.1 mph 32 % 0 in
14:30 79.5 °F 46.2 °F 30 in ESE 9.2 mph 9.2 mph 31 % 0 in
14:35 80.1 °F 46.8 °F 30 in NE 6.4 mph 6.4 mph 31 % 0 in
14:40 80.4 °F 46.9 °F 29.9 in ESE 5.8 mph 5.8 mph 31 % 0 in
14:45 79.7 °F 46.4 °F 29.9 in ESE 7 mph 11 mph 31 % 0 in
14:50 79.7 °F 46.4 °F 29.9 in ESE 7 mph 10 mph 31 % 0 in
14:55 80.2 °F 46.8 °F 29.9 in East 5 mph 12 mph 31 % 0 in
15:00 80.6 °F 46.2 °F 29.9 in ESE 8 mph 12 mph 30 % 0 in
15:05 81 °F 46.6 °F 29.9 in SE 3 mph 14 mph 30 % 0 in
15:10 79.9 °F 45.7 °F 29.9 in SE 12.7 mph 12.7 mph 30 % 0 in
15:15 79.7 °F 45.5 °F 29.9 in East 10.4 mph 10.4 mph 30 % 0 in
15:20 80.1 °F 45.9 °F 29.9 in ENE 10.4 mph 10.4 mph 30 % 0 in
15:25 79.9 °F 45.7 °F 29.9 in SSE 11.5 mph 11.5 mph 30 % 0 in
15:30 80.1 °F 45.9 °F 29.9 in East 12.8 mph 12.8 mph 30 % 0 in
15:35 79.5 °F 45.3 °F 29.9 in SE 8.1 mph 8.1 mph 30 % 0 in
15:40 79.3 °F 45.1 °F 29.9 in East 9.2 mph 9.2 mph 30 % 0 in
15:45 79.5 °F 45.3 °F 29.9 in ESE 9.2 mph 9.2 mph 30 % 0 in
15:50 79.7 °F 45.5 °F 29.9 in ESE 12.7 mph 12.7 mph 30 % 0 in
15:55 79.7 °F 44.6 °F 29.9 in ESE 8.1 mph 8.1 mph 29 % 0 in
16:00 79.9 °F 44.8 °F 29.9 in ENE 12.7 mph 12.7 mph 29 % 0 in
16:05 80.1 °F 45.9 °F 29.9 in ENE 7.1 mph 7.1 mph 30 % 0 in
16:10 79.5 °F 45.3 °F 29.9 in East 12.7 mph 12.7 mph 30 % 0 in
16:15 79.7 °F 45.5 °F 29.9 in ESE 10.4 mph 10.4 mph 30 % 0 in
16:20 79.9 °F 45.7 °F 29.9 in ESE 8.1 mph 8.1 mph 30 % 0 in
16:25 80.8 °F 46.4 °F 29.9 in SSW 5.8 mph 5.8 mph 30 % 0 in
16:35 79.9 °F 45.7 °F 29.9 in East 4.6 mph 4.6 mph 30 % 0 in
16:40 79.7 °F 44.6 °F 29.9 in WSW 8.1 mph 8.1 mph 29 % 0 in
16:45 80.1 °F 45.9 °F 29.9 in ENE 5.9 mph 5.9 mph 30 % 0 in
16:50 78.8 °F 44.8 °F 29.9 in NE 11.5 mph 11.5 mph 30 % 0 in
16:55 78.4 °F 44.4 °F 29.9 in East 11.5 mph 11.5 mph 30 % 0 in
17:00 77.7 °F 43.9 °F 29.9 in ESE 10.9 mph 10.9 mph 30 % 0 in
17:05 77.9 °F 44.1 °F 29.9 in ESE 5.8 mph 5.8 mph 30 % 0 in
17:10 77.4 °F 43.5 °F 29.9 in East 10.4 mph 10.4 mph 30 % 0 in
17:15 77.2 °F 44.2 °F 29.9 in ESE 5.8 mph 5.8 mph 31 % 0 in
17:20 76.6 °F 44.6 °F 29.9 in ESE 12.7 mph 12.7 mph 32 % 0 in
17:25 76.6 °F 44.6 °F 29.9 in SE 9.7 mph 9.7 mph 32 % 0 in
17:30 76.3 °F 44.2 °F 29.9 in SE 9.2 mph 9.2 mph 32 % 0 in
17:35 76.3 °F 44.2 °F 29.9 in ENE 10.4 mph 10.4 mph 32 % 0 in
17:40 75.9 °F 43.9 °F 29.9 in ESE 9.4 mph 9.4 mph 32 % 0 in
17:45 75.7 °F 43.9 °F 29.9 in ESE 9.2 mph 9.2 mph 32 % 0 in
17:50 75.2 °F 42.4 °F 29.9 in NE 10.4 mph 10.4 mph 31 % 0 in
17:55 75.2 °F 42.4 °F 29.9 in ESE 9.2 mph 9.2 mph 31 % 0 in
18:00 75 °F 42.3 °F 29.9 in ENE 8.1 mph 8.1 mph 31 % 0 in
18:05 75 °F 43.2 °F 29.9 in SE 5.8 mph 5.8 mph 32 % 0 in
18:10 74.8 °F 43 °F 29.9 in SW 4.6 mph 4.6 mph 32 % 0 in
18:15 74.8 °F 43 °F 29.9 in NE 3.5 mph 3.8 mph 32 % 0 in
18:20 74.7 °F 42.8 °F 29.9 in ESE 9.2 mph 9.2 mph 32 % 0 in
18:25 74.5 °F 42.6 °F 29.9 in NNE 6.9 mph 6.9 mph 32 % 0 in
18:30 74.7 °F 43.5 °F 29.9 in ESE 5.4 mph 5.4 mph 33 % 0 in
18:35 74.3 °F 43.3 °F 29.9 in East 5.8 mph 5.8 mph 33 % 0 in
18:40 74.3 °F 44.1 °F 29.9 in ESE 5.8 mph 5.8 mph 34 % 0 in
18:45 74.3 °F 44.1 °F 29.9 in ESE 6.4 mph 6.4 mph 34 % 0 in
18:50 74.1 °F 44.8 °F 29.9 in SSE 5.8 mph 5.8 mph 35 % 0 in
18:55 74.1 °F 44.8 °F 29.9 in ENE 6.9 mph 6.9 mph 35 % 0 in
19:00 74.1 °F 44.8 °F 29.9 in East 6.9 mph 6.9 mph 35 % 0 in
19:05 73.9 °F 44.4 °F 29.9 in ESE 6.9 mph 6.9 mph 35 % 0 in
19:10 73.9 °F 44.4 °F 29.9 in ESE 5.8 mph 5.8 mph 35 % 0 in
19:15 74.1 °F 44.8 °F 29.9 in South 2.3 mph 2.3 mph 35 % 0 in
19:20 74.3 °F 45.7 °F 29.9 in WSW 2.3 mph 2.3 mph 36 % 0 in
19:25 74.5 °F 45.9 °F 29.9 in SW 3.1 mph   36 % 0 in
19:30 74.7 °F 45.1 °F 29.9 in SW 2.3 mph 2.3 mph 35 % 0 in
19:35 74.7 °F 45.1 °F 29.9 in SW 2.3 mph 2.3 mph 35 % 0 in
19:40 74.7 °F 45.1 °F 29.9 in SSE 1.2 mph   35 % 0 in
19:45 74.7 °F 45.1 °F 29.9 in SW 1.2 mph 1.2 mph 35 % 0 in
19:50 74.3 °F 44.1 °F 29.9 in WSW 2.4 mph 2.4 mph 34 % 0 in
19:55 74.1 °F 43.9 °F 29.9 in SW 2.3 mph 2.3 mph 34 % 0 in
20:00 73.9 °F 43.9 °F 29.9 in SSW 2.3 mph 2.3 mph 34 % 0 in
20:05 73.9 °F 43.9 °F 29.9 in SW 2.3 mph 2.3 mph 34 % 0 in
20:10 73.9 °F 43.9 °F 29.9 in SW 2.3 mph   34 % 0 in
20:15 73.8 °F 43.5 °F 29.9 in WSW 2 mph 2 mph 34 % 0 in
20:20 73.8 °F 43.5 °F 29.9 in Calm     34 % 0 in
20:25 73.6 °F 43.5 °F 29.9 in Calm     34 % 0 in
20:30 73.4 °F 42.4 °F 29.9 in SW 2.3 mph 2.3 mph 33 % 0 in
20:35 73.2 °F 43.2 °F 29.9 in SW 1.2 mph   34 % 0 in
20:40 73.2 °F 43.2 °F 29.9 in SW 1.2 mph   34 % 0 in
20:45 73 °F 43 °F 29.9 in Calm     34 % 0 in
20:50 72.9 °F 42.8 °F 29.9 in WNW 1.2 mph   34 % 0 in
20:55 72.7 °F 42.6 °F 29.9 in NE 2 mph 2 mph 34 % 0 in
21:00 72.5 °F 42.4 °F 29.9 in NE 2.3 mph 2.3 mph 34 % 0 in
21:05 72.5 °F 43.3 °F 29.9 in East 3.5 mph 3.5 mph 35 % 0 in
21:10 72.1 °F 43.7 °F 29.9 in ENE 3.5 mph 3.6 mph 36 % 0 in
21:15 72 °F 44.2 °F 29.9 in NNE 4.3 mph 4.3 mph 37 % 0 in
21:20 71.8 °F 44.8 °F 29.9 in SW 3.5 mph 3.5 mph 38 % 0 in
21:25 71.6 °F 44.6 °F 29.9 in WSW 2.3 mph   38 % 0 in
21:30 71.2 °F 45 °F 29.9 in SSE 1.2 mph   39 % 0 in
21:35 71.1 °F 44.8 °F 29.9 in South 2.3 mph 2.4 mph 39 % 0 in
21:40 71.1 °F 44.8 °F 29.9 in South 1.2 mph 1.2 mph 39 % 0 in
21:45 70.9 °F 44.8 °F 29.9 in NE 2.4 mph   39 % 0 in
21:50 70.7 °F 45.1 °F 29.9 in ENE 2.3 mph 2.3 mph 40 % 0 in
21:55 70.5 °F 45 °F 29.9 in ENE 1.2 mph   40 % 0 in
22:00 70.5 °F 45 °F 29.9 in NNE 2.3 mph 2.3 mph 40 % 0 in
22:05 70.5 °F 45.7 °F 29.9 in East 2.3 mph 2.3 mph 41 % 0 in
22:10 70.5 °F 45.7 °F 29.9 in ENE 0.9 mph   41 % 0 in
22:15 70.2 °F 45.3 °F 29.9 in SW 1.2 mph 1.2 mph 41 % 0 in
22:20 69.8 °F 45 °F 29.9 in Calm     41 % 0 in
22:25 69.4 °F 45.3 °F 29.9 in Calm     42 % 0 in
22:30 69.3 °F 45.1 °F 29.9 in Calm     42 % 0 in
22:35 69.3 °F 45.1 °F 29.9 in South 2.3 mph 2.3 mph 42 % 0 in
22:40 69.3 °F 44.4 °F 29.9 in SSE 1.4 mph 1.4 mph 41 % 0 in
22:45 69.3 °F 44.4 °F 29.9 in South 1.2 mph 1.2 mph 41 % 0 in
22:50 69.1 °F 45 °F 29.9 in Calm     42 % 0 in
22:55 68.9 °F 45 °F 29.9 in Calm     42 % 0 in
23:00 68.9 °F 45 °F 29.9 in East 1.2 mph 1.4 mph 42 % 0 in
23:05 68.7 °F 44.8 °F 29.9 in North 1.2 mph 1.2 mph 42 % 0 in
23:10 68.7 °F 44.8 °F 29.9 in Calm     42 % 0 in
23:15 68.7 °F 44.8 °F 29.9 in NW 1.2 mph 1.2 mph 42 % 0 in
23:20 68.5 °F 45.1 °F 29.9 in Calm     43 % 0 in
23:25 68.5 °F 45.1 °F 29.9 in NE 2.3 mph 2.3 mph 43 % 0 in
23:30 68.4 °F 45 °F 29.9 in NNE 1.4 mph 1.4 mph 43 % 0 in
23:35 68.4 °F 45.7 °F 29.9 in NNE 1.2 mph   44 % 0 in
23:40 68.2 °F 45.3 °F 29.9 in NE 2.4 mph 2.4 mph 44 % 0 in
23:45 68.2 °F 45.3 °F 29.9 in NNE 2.3 mph   44 % 0 in
23:50 68.2 °F 45.3 °F 30 in NE 1.6 mph 1.6 mph 44 % 0 in
23:55 68 °F 45.3 °F 30 in NNE 2.4 mph 2.4 mph 44 % 0 in
Meteo Sesrovires
Elogis d' Weather Underground - 3.5 mb

Guio original per  Jim McMurry - jmcmurry@mwt.net Adaptat per a la plantilla per  Wim van der Kuil - Leuven-Template.eu

Trobareu la nostra informacio del temps tambe a:

Weather Underground

AWEKAS